Summerton, SC

8:34 PM EST on December 02, 2016 (GMT -0500)
Dingle Pond | | Change Station

Elev 95 ft 33.51 °N, 80.41 °W | Updated 1 second ago

Clear
Clear
41.2 °F
Feels Like 41 °F
N
0.0
Wind Variable Wind from East
Gusts 0.0 mph

Today
High -- | Low -- °F
--% Chance of Precip.
Yesterday
High -- | Low -- °F
Precip. -- in
Pressure 30.18 in
Visibility 10.0 miles
Clouds Clear
Windchill 41 °F
Dew Point 37 °F
Humidity 85%
Rainfall 0.00 in
Snow Depth Not available.
7:09 AM 5:12 PM
Waxing Crescent, 11% visible
METAR KSSC 030058Z AUTO 00000KT 10SM CLR 07/03 A3017 RMK AO2 SLP219 T00730026 $
Pressure 30.18 in
Visibility 10.0 miles
Clouds Clear
Windchill 41 °F
Dew Point 37 °F
Humidity 85%
Rainfall 0.00 in
Snow Depth Not available.
7:09 AM 5:12 PM
Waxing Crescent, 11% visible
METAR KSSC 030058Z AUTO 00000KT 10SM CLR 07/03 A3017 RMK AO2 SLP219 T00730026 $

10-Day Weather Forecast

Almanac

Astronomy

Dec. 02, 2016 Rise Set
Actual Time
Civil Twilight
Nautical Twilight
Astronomical Twilight
Moon
Length of Visible Light
Length of Day
Tomorrow will be .
, % of the Moon is Illuminated

Today's Extremes

State Highs State Lows

Community

WunderPhotos

Upload Photos

1,955,390 photos uploaded!

WunderBlog® & News

Nearby

Air Quality

  Air Quality AQ Index Pollutant
Not available.

Snow Depth

Station Depth Elevation

Earthquake Activity

City Distance Mag. Time & Date
Minimum magnitude displayed is 2.5.

Coastal Water Temperatures

Place Temperature

Stations

Nearby Weather Stations

Station Location Temp. Windchill Dew Point Humidity Wind Precip. Elev Updated Type
                   

Watches & Warnings

There are currently no watches in effect.